createdAt,value
2019-04-12T00:02:57.000Z,46.957
2019-04-12T00:12:57.000Z,47.049
2019-04-12T00:22:59.000Z,46.908
2019-04-12T00:32:57.000Z,46.851
2019-04-12T00:42:57.000Z,46.43
2019-04-12T01:02:57.000Z,46.283
2019-04-12T01:12:58.000Z,46.072
2019-04-12T01:22:57.000Z,46.091
2019-04-12T01:32:57.000Z,46.122
2019-04-12T01:42:57.000Z,46.152
2019-04-12T01:52:57.000Z,46.256
2019-04-12T02:02:57.000Z,46.147
2019-04-12T02:12:57.000Z,46.189
2019-04-12T02:22:57.000Z,46.229
2019-04-12T02:32:57.000Z,46.249
2019-04-12T02:42:57.000Z,46.257
2019-04-12T02:52:57.000Z,46.191
2019-04-12T03:02:57.000Z,46.221
2019-04-12T03:12:57.000Z,46.219
2019-04-12T03:22:57.000Z,46.281
2019-04-12T03:32:57.000Z,46.268
2019-04-12T03:42:57.000Z,46.234
2019-04-12T03:52:57.000Z,46.285
2019-04-12T04:02:57.000Z,46.24
2019-04-12T04:12:57.000Z,46.183
2019-04-12T04:22:57.000Z,46.203
2019-04-12T04:32:57.000Z,46.234
2019-04-12T04:42:57.000Z,46.167
2019-04-12T04:52:58.000Z,46.176
2019-04-12T05:02:59.000Z,45.536
2019-04-12T05:22:59.000Z,44.801
2019-04-12T05:32:58.000Z,44.938
2019-04-12T05:42:58.000Z,45.002
2019-04-12T05:52:58.000Z,45.046
2019-04-12T06:03:01.000Z,45.068
2019-04-12T06:12:58.000Z,45.154
2019-04-12T06:22:58.000Z,45.209
2019-04-12T06:32:58.000Z,45.314
2019-04-12T06:42:58.000Z,45.266
2019-04-12T06:52:58.000Z,46.934
2019-04-12T07:02:58.000Z,48.176
2019-04-12T07:12:58.000Z,48.78
2019-04-12T07:22:58.000Z,48.669
2019-04-12T07:32:58.000Z,48.705
2019-04-12T07:42:58.000Z,48.944
2019-04-12T07:52:58.000Z,48.794
2019-04-12T08:02:59.000Z,48.86
2019-04-12T08:12:58.000Z,48.98
2019-04-12T08:22:58.000Z,48.992
2019-04-12T08:32:58.000Z,48.843
2019-04-12T08:42:58.000Z,48.75
2019-04-12T08:52:58.000Z,48.768
2019-04-12T09:02:59.000Z,48.77
2019-04-12T09:12:58.000Z,48.754
2019-04-12T09:22:58.000Z,48.882
2019-04-12T09:32:58.000Z,48.636
2019-04-12T09:42:58.000Z,48.913
2019-04-12T09:52:58.000Z,49.162
2019-04-12T10:02:58.000Z,49.113
2019-04-12T10:12:59.000Z,48.841
2019-04-12T10:22:58.000Z,48.83
2019-04-12T10:32:58.000Z,48.614
2019-04-12T10:42:58.000Z,48.516
2019-04-12T10:52:58.000Z,48.154
2019-04-12T11:02:58.000Z,47.708
2019-04-12T11:12:58.000Z,47.443
2019-04-12T11:22:59.000Z,47.252
2019-04-12T11:32:59.000Z,47.306
2019-04-12T11:43:00.000Z,47.041
2019-04-12T11:52:58.000Z,46.997
2019-04-12T12:02:58.000Z,46.946
2019-04-12T12:12:59.000Z,41.039
2019-04-12T12:22:58.000Z,45.078
2019-04-12T12:32:59.000Z,45.173
2019-04-12T12:42:58.000Z,45.095
2019-04-12T12:52:58.000Z,45.004
2019-04-12T13:02:58.000Z,45.18
2019-04-12T13:12:58.000Z,44.819
2019-04-12T13:22:58.000Z,44.875
2019-04-12T13:33:00.000Z,44.764
2019-04-12T13:42:58.000Z,44.427
2019-04-12T13:52:59.000Z,44.334
2019-04-12T14:03:03.000Z,43.612
2019-04-12T14:12:59.000Z,43.454
2019-04-12T14:33:00.000Z,42.509
2019-04-12T14:42:59.000Z,42.295
2019-04-12T14:52:59.000Z,42.128
2019-04-12T15:02:59.000Z,41.875
2019-04-12T15:12:59.000Z,41.538
2019-04-12T15:22:59.000Z,41.716
2019-04-12T15:32:59.000Z,41.862
2019-04-12T15:42:59.000Z,41.975
2019-04-12T15:52:59.000Z,41.891
2019-04-12T16:03:00.000Z,41.874
2019-04-12T16:13:01.000Z,42.157
2019-04-12T16:22:59.000Z,42.223
2019-04-12T16:32:59.000Z,42.213
2019-04-12T16:42:59.000Z,42.202
2019-04-12T16:52:59.000Z,42.316
2019-04-12T17:02:59.000Z,42.229
2019-04-12T17:13:01.000Z,41.917
2019-04-12T17:22:59.000Z,42.077
2019-04-12T17:33:00.000Z,41.787
2019-04-12T17:43:03.000Z,41.904
2019-04-12T17:52:59.000Z,41.678
2019-04-12T18:02:59.000Z,41.431
2019-04-12T18:12:59.000Z,41.38
2019-04-12T18:22:59.000Z,41.25
2019-04-12T18:33:01.000Z,41.122
2019-04-12T18:42:59.000Z,39.943
2019-04-12T18:52:59.000Z,39.243
2019-04-12T19:03:02.000Z,39.182
2019-04-12T19:12:59.000Z,38.894
2019-04-12T19:22:59.000Z,39.233
2019-04-12T19:32:59.000Z,38.418
2019-04-12T19:42:59.000Z,38.549
2019-04-12T19:52:59.000Z,38.672
2019-04-12T20:02:59.000Z,38.601
2019-04-12T20:12:59.000Z,38.593
2019-04-12T20:22:59.000Z,38.692
2019-04-12T20:33:00.000Z,38.779
2019-04-12T20:42:59.000Z,38.714
2019-04-12T20:52:59.000Z,38.586
2019-04-12T21:03:02.000Z,37.681
2019-04-12T21:13:01.000Z,39.361
2019-04-12T21:22:59.000Z,39.581
2019-04-12T21:32:59.000Z,39.562
2019-04-12T21:43:00.000Z,39.625
2019-04-12T21:52:59.000Z,39.593
2019-04-12T22:13:00.000Z,39.905
2019-04-12T22:23:00.000Z,39.582
2019-04-12T22:33:00.000Z,39.381
2019-04-12T22:43:00.000Z,39.344
2019-04-12T22:53:00.000Z,39.448
2019-04-12T23:03:00.000Z,39.594
2019-04-12T23:13:00.000Z,39.461
2019-04-12T23:23:00.000Z,39.63
2019-04-12T23:33:00.000Z,39.615
2019-04-12T23:43:00.000Z,39.58
2019-04-12T23:53:00.000Z,39.759
